Time;durP1;ratioP1;P1;durP2;ratioP2;P2;SDS_P1;SDS_P2;PMS_P1;PMS_P2;Temp;Humidity;BMP_temperature;BMP_pressure;BME280_temperature;BME280_humidity;BME280_pressure;Samples;Min_cycle;Max_cycle;Signal;HPM_P1;HPM_P2
2021/04/09 00:02:24;;;;;;;15.88;6.07;;;5.30;99.90;;;;;;5042710;28;20034;-72
2021/04/09 00:04:50;;;;;;;10.55;5.95;;;5.30;99.90;;;;;;5044523;28;20029;-73
2021/04/09 00:07:16;;;;;;;15.73;6.20;;;5.30;99.90;;;;;;5043208;28;20032;-74
2021/04/09 00:09:45;;;;;;;13.13;5.45;;;5.30;99.90;;;;;;5044499;28;20034;-75
2021/04/09 00:12:11;;;;;;;12.93;7.50;;;5.30;99.90;;;;;;5042840;28;20029;-75
2021/04/09 00:14:37;;;;;;;11.88;5.60;;;5.30;99.90;;;;;;5043140;28;20033;-73
2021/04/09 00:17:05;;;;;;;16.63;6.50;;;5.30;99.90;;;;;;5044516;28;20034;-71
2021/04/09 00:19:31;;;;;;;19.83;6.40;;;5.30;99.90;;;;;;5043980;28;20092;-72
2021/04/09 00:21:57;;;;;;;11.30;6.38;;;5.30;99.90;;;;;;5044378;28;20509;-72
2021/04/09 00:24:23;;;;;;;25.02;7.68;;;5.30;99.90;;;;;;5044376;28;20026;-72
2021/04/09 00:26:51;;;;;;;13.38;6.57;;;5.30;99.90;;;;;;5044493;28;20100;-72
2021/04/09 00:29:17;;;;;;;12.50;5.40;;;5.30;99.90;;;;;;5044225;28;20024;-74
2021/04/09 00:31:43;;;;;;;14.73;5.72;;;5.40;99.90;;;;;;5044461;28;20029;-73
2021/04/09 00:34:09;;;;;;;10.60;5.55;;;5.30;99.90;;;;;;5044514;28;20044;-75
2021/04/09 00:36:36;;;;;;;10.43;6.40;;;5.30;99.90;;;;;;5044494;28;20071;-72
2021/04/09 00:39:05;;;;;;;26.50;6.47;;;5.30;99.90;;;;;;5044345;28;20030;-71
2021/04/09 00:41:31;;;;;;;13.82;5.75;;;5.30;99.90;;;;;;5044129;28;20033;-74
2021/04/09 00:43:57;;;;;;;11.07;5.55;;;5.40;99.90;;;;;;5044057;28;20045;-71
2021/04/09 00:46:23;;;;;;;13.80;6.07;;;5.30;99.90;;;;;;5043111;28;20026;-72
2021/04/09 00:48:49;;;;;;;10.50;5.43;;;5.30;99.90;;;;;;5042909;28;20029;-73
2021/04/09 00:51:15;;;;;;;13.10;5.60;;;5.30;99.90;;;;;;5044200;28;20425;-72
2021/04/09 00:53:43;;;;;;;14.60;6.20;;;5.30;99.90;;;;;;5043147;28;20068;-72
2021/04/09 00:56:12;;;;;;;15.80;5.60;;;5.30;99.90;;;;;;5044227;28;20022;-73
2021/04/09 00:58:38;;;;;;;18.15;7.53;;;5.40;99.90;;;;;;5044038;28;20033;-71
2021/04/09 01:01:05;;;;;;;13.63;5.07;;;5.30;99.90;;;;;;5044228;28;20049;-74
2021/04/09 01:03:32;;;;;;;9.88;4.95;;;5.30;99.90;;;;;;5044045;28;20028;-74
2021/04/09 01:05:58;;;;;;;14.57;5.85;;;5.30;99.90;;;;;;5043717;28;20044;-71
2021/04/09 01:08:24;;;;;;;17.55;6.90;;;5.30;99.90;;;;;;5047591;28;20104;-74
2021/04/09 01:10:50;;;;;;;13.52;6.35;;;5.30;99.90;;;;;;5047613;28;20064;-73
2021/04/09 01:13:15;;;;;;;20.95;7.03;;;5.30;99.90;;;;;;5047453;28;20029;-74
2021/04/09 01:15:42;;;;;;;17.48;5.97;;;5.20;99.90;;;;;;5047666;28;20029;-74
2021/04/09 01:18:14;;;;;;;13.43;5.70;;;5.30;99.90;;;;;;5047442;28;20080;-73
2021/04/09 01:21:15;;;;;;;17.92;7.10;;;5.20;99.90;;;;;;5046080;28;20048;-73
2021/04/09 01:24:01;;;;;;;13.77;5.38;;;5.10;99.90;;;;;;5068438;28;20035;-72
2021/04/09 01:26:32;;;;;;;12.02;5.90;;;5.10;99.90;;;;;;5048876;28;20033;-73
2021/04/09 01:29:07;;;;;;;14.52;6.13;;;5.10;99.90;;;;;;5047013;28;20037;-72
2021/04/09 01:31:47;;;;;;;12.85;6.35;;;5.10;99.90;;;;;;5045754;28;20037;-73
2021/04/09 01:34:14;;;;;;;15.20;5.53;;;5.00;99.90;;;;;;5047260;28;20033;-73
2021/04/09 01:36:44;;;;;;;15.93;6.82;;;5.00;99.90;;;;;;5045862;28;20393;-73
2021/04/09 01:39:14;;;;;;;12.18;6.03;;;5.00;99.90;;;;;;5045711;28;20418;-74
2021/04/09 01:41:41;;;;;;;14.10;6.30;;;4.90;99.90;;;;;;5045569;28;20048;-73
2021/04/09 01:44:09;;;;;;;12.90;6.28;;;4.90;99.90;;;;;;5045951;28;20026;-73
2021/04/09 01:46:40;;;;;;;19.98;6.22;;;4.90;99.90;;;;;;5046827;28;20017;-72
2021/04/09 01:49:07;;;;;;;18.65;7.25;;;4.80;99.90;;;;;;5047198;28;20018;-73
2021/04/09 01:51:35;;;;;;;19.75;5.60;;;4.80;99.90;;;;;;5046881;28;20398;-73
2021/04/09 01:54:02;;;;;;;12.88;6.50;;;4.80;99.90;;;;;;5046834;28;20081;-71
2021/04/09 01:56:29;;;;;;;14.95;5.70;;;4.80;99.90;;;;;;5046815;28;20036;-73
2021/04/09 01:58:55;;;;;;;22.60;6.50;;;4.70;99.90;;;;;;5045146;28;20030;-72
2021/04/09 02:01:21;;;;;;;14.48;5.78;;;4.70;99.90;;;;;;5046500;28;20052;-72
2021/04/09 02:03:52;;;;;;;16.20;7.47;;;4.70;99.90;;;;;;5046499;28;20068;-72
2021/04/09 02:06:18;;;;;;;26.58;7.00;;;4.70;99.90;;;;;;5045322;28;20049;-71
2021/04/09 02:08:44;;;;;;;13.07;5.80;;;4.70;99.90;;;;;;5046561;28;20555;-73
2021/04/09 02:11:11;;;;;;;13.13;6.18;;;4.70;99.90;;;;;;5046626;28;20036;-73
2021/04/09 02:13:38;;;;;;;15.30;6.10;;;4.70;99.90;;;;;;5045400;28;20033;-71
2021/04/09 02:16:04;;;;;;;19.05;6.40;;;4.70;99.90;;;;;;5045128;28;20494;-72
2021/04/09 02:18:31;;;;;;;12.20;5.55;;;4.70;99.90;;;;;;5044862;28;20053;-73
2021/04/09 02:20:58;;;;;;;18.40;6.95;;;4.70;99.90;;;;;;5046209;28;20041;-73
2021/04/09 02:23:24;;;;;;;15.20;5.40;;;4.60;99.90;;;;;;5044849;28;20093;-72
2021/04/09 02:25:49;;;;;;;18.75;7.03;;;4.60;99.90;;;;;;5044840;28;20056;-72
2021/04/09 02:28:16;;;;;;;13.57;6.05;;;4.60;99.90;;;;;;5046340;28;20029;-74
2021/04/09 02:30:42;;;;;;;13.65;6.15;;;4.60;99.90;;;;;;5046196;28;20048;-72
2021/04/09 02:33:08;;;;;;;26.55;7.55;;;4.60;99.90;;;;;;5046295;28;20025;-73
2021/04/09 02:35:33;;;;;;;10.60;5.15;;;4.60;99.90;;;;;;5046020;28;20033;-74
2021/04/09 02:38:00;;;;;;;19.35;5.90;;;4.50;99.90;;;;;;5044555;28;20572;-72
2021/04/09 02:40:31;;;;;;;16.88;6.07;;;4.50;99.90;;;;;;5044524;28;20034;-73
2021/04/09 02:42:57;;;;;;;13.35;5.38;;;4.50;99.90;;;;;;5044607;28;20033;-73
2021/04/09 02:45:24;;;;;;;15.68;5.22;;;4.60;99.90;;;;;;5045874;28;20029;-70
2021/04/09 02:47:51;;;;;;;15.25;5.72;;;4.60;99.90;;;;;;5044547;28;20037;-72
2021/04/09 02:50:21;;;;;;;19.40;6.22;;;4.50;99.90;;;;;;5045864;28;20045;-72
2021/04/09 02:52:52;;;;;;;14.50;6.28;;;4.50;99.90;;;;;;5044295;28;20022;-73
2021/04/09 02:55:21;;;;;;;26.55;7.63;;;4.50;99.90;;;;;;5045558;28;20052;-73
2021/04/09 02:57:48;;;;;;;21.38;7.00;;;4.50;99.90;;;;;;5044132;28;20536;-73
2021/04/09 03:00:15;;;;;;;16.50;7.07;;;4.40;99.90;;;;;;5045603;28;20168;-73
2021/04/09 03:02:43;;;;;;;10.82;5.93;;;4.50;99.90;;;;;;5045535;28;20038;-74
2021/04/09 03:05:11;;;;;;;10.70;5.22;;;4.50;99.90;;;;;;5045646;28;20038;-72
2021/04/09 03:07:39;;;;;;;18.88;6.55;;;4.50;99.90;;;;;;5045632;28;20026;-72
2021/04/09 03:10:16;;;;;;;14.35;5.53;;;4.50;99.90;;;;;;5044071;28;20033;-72
2021/04/09 03:12:42;;;;;;;13.93;6.03;;;4.50;99.90;;;;;;5045367;28;20026;-73
2021/04/09 03:15:17;;;;;;;13.80;6.18;;;4.40;99.90;;;;;;5045205;28;20036;-71
2021/04/09 03:17:51;;;;;;;12.55;5.32;;;4.40;99.90;;;;;;5045307;28;20028;-73
2021/04/09 03:20:17;;;;;;;13.20;5.72;;;4.40;99.90;;;;;;5044999;28;20374;-72
2021/04/09 03:22:42;;;;;;;10.30;5.10;;;4.40;99.90;;;;;;5045370;28;20047;-72
2021/04/09 03:25:09;;;;;;;14.20;6.15;;;4.40;99.90;;;;;;5045239;28;20486;-74
2021/04/09 03:27:34;;;;;;;14.52;6.70;;;4.30;99.90;;;;;;5045285;28;20040;-72
2021/04/09 03:30:00;;;;;;;13.27;6.85;;;4.30;99.90;;;;;;5043406;28;20029;-71
2021/04/09 03:32:26;;;;;;;18.52;5.18;;;4.20;99.90;;;;;;5043599;28;20087;-72
2021/04/09 03:34:51;;;;;;;20.60;6.25;;;4.30;99.90;;;;;;5045066;28;20033;-71
2021/04/09 03:37:17;;;;;;;22.80;7.10;;;4.40;99.90;;;;;;5044916;28;20028;-72
2021/04/09 03:39:42;;;;;;;19.80;5.35;;;4.40;99.90;;;;;;5044691;28;20478;-72
2021/04/09 03:42:09;;;;;;;17.20;6.38;;;4.40;99.90;;;;;;5044971;28;20029;-72
2021/04/09 03:44:35;;;;;;;16.63;6.15;;;4.40;99.90;;;;;;5045049;28;20036;-70
2021/04/09 03:47:00;;;;;;;15.48;5.68;;;4.50;99.90;;;;;;5044840;28;20470;-71
2021/04/09 03:49:26;;;;;;;14.82;5.88;;;4.50;99.90;;;;;;5044594;28;20028;-71
2021/04/09 03:51:52;;;;;;;14.02;5.43;;;4.60;99.90;;;;;;5044929;28;20026;-72
2021/04/09 03:54:17;;;;;;;12.43;5.13;;;4.60;99.90;;;;;;5044970;28;20188;-72
2021/04/09 03:56:43;;;;;;;19.38;7.32;;;4.60;99.90;;;;;;5043430;28;20108;-73
2021/04/09 03:59:09;;;;;;;14.43;5.88;;;4.70;99.90;;;;;;5044686;28;20029;-71
2021/04/09 04:01:35;;;;;;;16.10;5.85;;;4.70;99.90;;;;;;5043226;28;20041;-70
2021/04/09 04:04:00;;;;;;;18.42;5.78;;;4.80;99.90;;;;;;5044454;28;20101;-72
2021/04/09 04:06:26;;;;;;;17.13;6.07;;;4.80;99.90;;;;;;5044635;28;20037;-73
2021/04/09 04:08:51;;;;;;;14.85;7.03;;;4.90;99.90;;;;;;5044659;28;20026;-73
2021/04/09 04:11:17;;;;;;;10.80;5.55;;;4.90;99.90;;;;;;5044417;28;20029;-73
2021/04/09 04:13:43;;;;;;;15.85;6.35;;;5.00;99.90;;;;;;5044409;28;20113;-74
2021/04/09 04:16:08;;;;;;;11.35;5.35;;;5.00;99.90;;;;;;5044721;28;20021;-74
2021/04/09 04:18:34;;;;;;;11.68;3.90;;;5.10;99.90;;;;;;5044059;28;20099;-74
2021/04/09 04:21:00;;;;;;;11.25;5.10;;;5.20;99.90;;;;;;5044431;28;20142;-71
2021/04/09 04:23:26;;;;;;;13.57;5.93;;;5.20;99.90;;;;;;5044481;28;20052;-73
2021/04/09 04:25:52;;;;;;;15.70;5.18;;;5.30;99.90;;;;;;5044403;28;20025;-72
2021/04/09 04:28:18;;;;;;;10.45;4.90;;;5.30;99.90;;;;;;5043104;28;20026;-74
2021/04/09 04:30:50;;;;;;;10.18;4.53;;;5.30;99.90;;;;;;5044452;28;20028;-72
2021/04/09 04:33:17;;;;;;;5.97;3.28;;;5.30;99.90;;;;;;5044468;28;20055;-73
2021/04/09 04:35:43;;;;;;;15.05;5.32;;;5.30;99.90;;;;;;5043046;28;20028;-72
2021/04/09 04:38:09;;;;;;;14.90;4.72;;;5.30;99.90;;;;;;5044248;28;20471;-73
2021/04/09 04:40:34;;;;;;;9.77;5.00;;;5.30;99.90;;;;;;5043238;28;20048;-73
2021/04/09 04:43:00;;;;;;;10.82;4.20;;;5.30;99.90;;;;;;5048305;28;20029;-73
2021/04/09 04:45:25;;;;;;;10.80;5.03;;;5.30;99.90;;;;;;5048203;28;20037;-73
2021/04/09 04:47:51;;;;;;;12.98;5.72;;;5.30;99.90;;;;;;5046530;28;20029;-72
2021/04/09 04:50:17;;;;;;;13.57;4.85;;;5.40;99.90;;;;;;5047886;28;20032;-72
2021/04/09 04:52:42;;;;;;;13.35;5.13;;;5.30;99.90;;;;;;5045958;28;20089;-71
2021/04/09 04:55:09;;;;;;;13.05;5.07;;;5.30;99.90;;;;;;5048048;28;20029;-71
2021/04/09 04:57:34;;;;;;;11.68;4.88;;;5.30;99.90;;;;;;5047728;28;20045;-72
2021/04/09 05:00:00;;;;;;;12.73;5.45;;;5.30;99.90;;;;;;5047674;28;20539;-74
2021/04/09 05:02:26;;;;;;;13.98;5.90;;;5.40;99.90;;;;;;5047508;28;20034;-72
2021/04/09 05:04:51;;;;;;;9.70;4.82;;;5.30;99.90;;;;;;5047515;28;20041;-73
2021/04/09 05:07:17;;;;;;;7.13;3.88;;;5.30;99.90;;;;;;5047717;28;20060;-71
2021/04/09 05:09:43;;;;;;;13.82;5.32;;;5.40;99.90;;;;;;5047312;28;20021;-70
2021/04/09 05:12:09;;;;;;;15.93;6.43;;;5.30;99.90;;;;;;5047507;28;20421;-71
2021/04/09 05:14:34;;;;;;;16.23;4.15;;;5.40;99.90;;;;;;5047518;28;20033;-71
2021/04/09 05:17:00;;;;;;;12.85;5.43;;;5.40;99.90;;;;;;5045641;28;20026;-71
2021/04/09 05:19:26;;;;;;;12.65;5.85;;;5.40;99.90;;;;;;5045349;28;20049;-73
2021/04/09 05:21:51;;;;;;;9.13;4.18;;;5.40;99.90;;;;;;5046907;28;20037;-72
2021/04/09 05:24:17;;;;;;;9.88;4.78;;;5.40;99.90;;;;;;5045555;28;20035;-72
2021/04/09 05:26:43;;;;;;;11.63;5.00;;;5.40;99.90;;;;;;5047096;28;20470;-72
2021/04/09 05:29:08;;;;;;;12.60;4.75;;;5.40;99.90;;;;;;5045582;28;20034;-72
2021/04/09 05:31:34;;;;;;;15.18;5.13;;;5.40;99.90;;;;;;5045546;28;20021;-74
2021/04/09 05:34:00;;;;;;;11.70;5.53;;;5.50;99.90;;;;;;5046431;28;20578;-71
2021/04/09 05:36:25;;;;;;;9.75;4.47;;;5.50;99.90;;;;;;5045795;28;20124;-71
2021/04/09 05:38:51;;;;;;;10.73;5.72;;;5.50;99.90;;;;;;5052987;28;20065;-71
2021/04/09 05:41:17;;;;;;;16.85;5.80;;;5.50;99.90;;;;;;5056166;28;20053;-72
2021/04/09 05:43:43;;;;;;;10.57;4.50;;;5.50;99.90;;;;;;5051537;28;20029;-70
2021/04/09 05:46:08;;;;;;;17.77;6.30;;;5.50;99.90;;;;;;5066094;28;20473;-72
2021/04/09 05:48:34;;;;;;;13.40;5.32;;;5.60;99.90;;;;;;5066141;28;20025;-70
2021/04/09 05:50:59;;;;;;;5.63;3.28;;;5.60;99.90;;;;;;5065372;28;20055;-72
2021/04/09 05:53:25;;;;;;;13.50;6.10;;;5.50;99.90;;;;;;5066001;28;20028;-71
2021/04/09 05:55:51;;;;;;;11.35;5.47;;;5.60;99.90;;;;;;5065191;28;20033;-70
2021/04/09 05:58:16;;;;;;;17.40;5.82;;;5.60;99.90;;;;;;5066109;28;20036;-70
2021/04/09 06:00:42;;;;;;;12.40;4.00;;;5.70;99.90;;;;;;5066252;28;20516;-70
2021/04/09 06:03:08;;;;;;;17.73;5.07;;;5.70;99.90;;;;;;5066026;28;20078;-70
2021/04/09 06:05:34;;;;;;;13.35;5.63;;;5.70;99.90;;;;;;5065958;28;20040;-71
2021/04/09 06:08:00;;;;;;;10.45;3.80;;;5.80;99.90;;;;;;5064164;28;20021;-70
2021/04/09 06:10:26;;;;;;;11.13;5.28;;;5.90;99.90;;;;;;5064550;28;20028;-70
2021/04/09 06:12:52;;;;;;;9.88;3.85;;;5.90;99.90;;;;;;5065683;28;20118;-71
2021/04/09 06:15:18;;;;;;;11.02;5.18;;;6.00;99.90;;;;;;5065523;28;20031;-71
2021/04/09 06:17:44;;;;;;;10.95;4.88;;;6.00;99.90;;;;;;5065461;28;20473;-72
2021/04/09 06:20:12;;;;;;;19.60;5.72;;;6.00;99.90;;;;;;5065672;28;20474;-70
2021/04/09 06:22:38;;;;;;;9.27;4.05;;;6.10;99.90;;;;;;5058472;28;20028;-70
2021/04/09 06:25:05;;;;;;;10.43;4.80;;;6.10;99.90;;;;;;5057931;28;20037;-71
2021/04/09 06:27:31;;;;;;;21.98;6.43;;;6.10;99.90;;;;;;5047180;28;20031;-70
2021/04/09 06:29:57;;;;;;;9.93;5.18;;;6.30;99.90;;;;;;5054605;28;20112;-70
2021/04/09 06:32:22;;;;;;;10.13;4.85;;;6.20;99.90;;;;;;5065343;28;20025;-71
2021/04/09 06:34:59;;;;;;;11.65;5.07;;;6.30;99.90;;;;;;5066057;28;20033;-73
2021/04/09 06:37:28;;;;;;;9.80;5.30;;;6.30;99.90;;;;;;5064302;28;20170;-70
2021/04/09 06:39:53;;;;;;;8.35;4.72;;;6.30;99.90;;;;;;5065579;28;20025;-69
2021/04/09 06:42:19;;;;;;;17.25;5.82;;;6.30;99.90;;;;;;5065694;28;20036;-71
2021/04/09 06:44:49;;;;;;;14.60;5.78;;;6.40;99.90;;;;;;5065533;28;20107;-72
2021/04/09 06:47:16;;;;;;;15.80;5.30;;;6.50;99.90;;;;;;5065824;28;20033;-70
2021/04/09 06:49:42;;;;;;;12.88;4.63;;;6.60;99.90;;;;;;5063733;28;20017;-72
2021/04/09 06:52:14;;;;;;;15.50;5.53;;;6.60;99.90;;;;;;5065471;28;20060;-71
2021/04/09 06:54:42;;;;;;;13.27;5.22;;;6.70;99.90;;;;;;5064212;28;20025;-73
2021/04/09 06:57:13;;;;;;;11.80;5.10;;;6.80;99.90;;;;;;5065675;28;20056;-72
2021/04/09 06:59:44;;;;;;;21.85;6.47;;;6.80;99.90;;;;;;5065308;28;20109;-72
2021/04/09 07:02:16;;;;;;;14.70;5.22;;;6.90;99.90;;;;;;5065497;28;20025;-72
2021/04/09 07:04:46;;;;;;;16.70;5.25;;;7.00;99.90;;;;;;5064752;28;20029;-70
2021/04/09 07:07:14;;;;;;;16.52;5.63;;;7.10;99.90;;;;;;5065459;28;20516;-71
2021/04/09 07:09:40;;;;;;;12.15;5.45;;;7.20;99.90;;;;;;5064880;28;20105;-71
2021/04/09 07:12:07;;;;;;;13.02;5.00;;;7.20;99.90;;;;;;5064976;28;20036;-70
2021/04/09 07:14:53;;;;;;;13.82;4.43;;;7.30;99.90;;;;;;5065049;28;20120;-70
2021/04/09 07:17:32;;;;;;;16.20;6.13;;;7.30;99.90;;;;;;5065295;28;20061;-70
2021/04/09 07:20:17;;;;;;;10.80;4.93;;;7.30;99.90;;;;;;5064509;28;20086;-71
2021/04/09 07:22:48;;;;;;;11.15;4.72;;;7.40;99.90;;;;;;5064962;28;20037;-70
2021/04/09 07:25:20;;;;;;;8.63;4.82;;;7.40;99.90;;;;;;5065212;28;20043;-73
2021/04/09 07:27:47;;;;;;;10.98;4.95;;;7.50;99.90;;;;;;5063798;28;20029;-70
2021/04/09 07:30:27;;;;;;;9.70;4.93;;;7.50;99.90;;;;;;5064985;28;20035;-72
2021/04/09 07:33:05;;;;;;;11.35;5.38;;;7.50;99.90;;;;;;5064623;28;20040;-71
2021/04/09 07:35:46;;;;;;;11.32;5.43;;;7.50;99.90;;;;;;5064790;28;20039;-72
2021/04/09 07:38:22;;;;;;;12.45;5.22;;;7.70;99.90;;;;;;5064925;28;20029;-73
2021/04/09 07:41:01;;;;;;;9.57;4.95;;;7.90;99.90;;;;;;5064727;28;20041;-72
2021/04/09 07:43:44;;;;;;;14.25;5.30;;;8.00;99.90;;;;;;5040880;28;20025;-73
2021/04/09 07:46:32;;;;;;;12.95;5.72;;;8.10;99.90;;;;;;5029781;28;20076;-72
2021/04/09 07:49:03;;;;;;;10.05;4.63;;;8.20;99.90;;;;;;5024858;28;20049;-72
2021/04/09 07:51:29;;;;;;;10.05;5.03;;;8.30;99.90;;;;;;5024368;28;20033;-71
2021/04/09 07:54:10;;;;;;;11.95;5.07;;;8.30;99.90;;;;;;5024840;28;20348;-72
2021/04/09 07:56:45;;;;;;;9.90;5.18;;;8.30;99.90;;;;;;5025083;28;20018;-71
2021/04/09 07:59:16;;;;;;;10.68;4.82;;;8.40;99.90;;;;;;5024730;28;20030;-72
2021/04/09 08:01:48;;;;;;;13.48;5.53;;;8.50;99.90;;;;;;5024803;28;20045;-71
2021/04/09 08:04:14;;;;;;;10.38;5.75;;;8.50;99.90;;;;;;5024736;28;20036;-71
2021/04/09 08:06:40;;;;;;;11.00;4.93;;;8.60;99.90;;;;;;5024928;28;20061;-72
2021/04/09 08:09:06;;;;;;;15.65;4.20;;;8.80;99.90;;;;;;5025036;28;20093;-71
2021/04/09 08:11:34;;;;;;;13.05;5.43;;;8.80;99.90;;;;;;5046788;28;20404;-70
2021/04/09 08:14:03;;;;;;;11.52;4.80;;;8.90;99.90;;;;;;5060990;28;20099;-72
2021/04/09 08:16:29;;;;;;;15.50;5.43;;;9.00;99.90;;;;;;5046477;28;20026;-72
2021/04/09 08:19:06;;;;;;;12.98;4.85;;;9.20;99.90;;;;;;5064112;28;20049;-72
2021/04/09 08:21:35;;;;;;;6.72;3.67;;;9.20;99.90;;;;;;5068348;28;20100;-70
2021/04/09 08:24:01;;;;;;;12.45;4.72;;;9.20;99.90;;;;;;5068537;28;20021;-71
2021/04/09 08:26:28;;;;;;;15.38;5.85;;;9.30;99.90;;;;;;5068140;28;20430;-71
2021/04/09 08:28:56;;;;;;;10.73;4.80;;;9.30;99.90;;;;;;5066389;28;20033;-72
2021/04/09 08:31:22;;;;;;;11.93;4.97;;;9.40;99.90;;;;;;5067983;28;20027;-72
2021/04/09 08:33:48;;;;;;;8.65;4.72;;;9.40;99.90;;;;;;5068237;28;20089;-72
2021/04/09 08:36:15;;;;;;;13.23;5.55;;;9.40;99.90;;;;;;5066137;28;20029;-73
2021/04/09 08:38:47;;;;;;;17.17;6.25;;;9.40;99.90;;;;;;5066307;28;20051;-75
2021/04/09 08:41:15;;;;;;;9.60;4.68;;;9.40;99.90;;;;;;5067718;28;20043;-75
2021/04/09 08:43:42;;;;;;;18.08;5.90;;;9.30;99.90;;;;;;5067826;28;20078;-74
2021/04/09 08:46:07;;;;;;;10.52;4.47;;;9.30;99.90;;;;;;5067081;28;20032;-70
2021/04/09 08:48:36;;;;;;;10.73;4.63;;;9.30;99.90;;;;;;5053724;28;20042;-73
2021/04/09 08:51:03;;;;;;;8.80;4.35;;;9.30;99.90;;;;;;5047857;28;20030;-72
2021/04/09 08:53:30;;;;;;;9.77;4.80;;;9.40;99.90;;;;;;5047719;28;20486;-71
2021/04/09 08:55:56;;;;;;;12.02;4.28;;;9.40;99.90;;;;;;5066135;28;20092;-75
2021/04/09 08:58:22;;;;;;;15.20;5.70;;;9.50;99.90;;;;;;5061538;28;20095;-73
2021/04/09 09:00:57;;;;;;;9.63;4.43;;;9.70;99.90;;;;;;5058905;28;20105;-74
2021/04/09 09:03:27;;;;;;;;;;;9.90;99.90;;;;;;5054494;28;20038;-74
2021/04/09 09:06:08;;;;;;;13.43;4.78;;;10.00;99.90;;;;;;5057855;28;19905;-72
2021/04/09 09:08:46;;;;;;;8.20;4.20;;;10.10;99.90;;;;;;5026848;28;20030;-72
2021/04/09 09:11:51;;;;;;;15.75;5.45;;;10.20;99.90;;;;;;5032118;28;20053;-75
2021/04/09 09:14:37;;;;;;;7.90;4.32;;;10.30;99.90;;;;;;5067533;28;20458;-73
2021/04/09 09:17:18;;;;;;;8.45;4.85;;;10.30;99.90;;;;;;5052802;28;20029;-73
2021/04/09 09:19:49;;;;;;;10.73;5.18;;;10.50;99.90;;;;;;5050890;28;20159;-74
2021/04/09 09:22:21;;;;;;;13.20;5.43;;;10.60;99.90;;;;;;5066486;28;20040;-74
2021/04/09 09:25:06;;;;;;;15.43;5.65;;;10.70;99.90;;;;;;5066316;28;20027;-71
2021/04/09 09:27:49;;;;;;;8.20;4.63;;;10.80;99.90;;;;;;5049619;28;20220;-75
2021/04/09 09:30:31;;;;;;;13.05;5.40;;;10.70;99.90;;;;;;5047298;28;20561;-71
2021/04/09 09:33:20;;;;;;;11.15;4.65;;;10.80;99.90;;;;;;5047204;28;20040;-73
2021/04/09 09:36:05;;;;;;;8.55;4.80;;;11.00;99.90;;;;;;5049860;28;20097;-72
2021/04/09 09:38:47;;;;;;;;;;;11.20;99.90;;;;;;5058085;28;20402;-73
2021/04/09 09:41:33;;;;;;;11.95;5.10;;;11.40;99.90;;;;;;5062620;28;20436;-72
2021/04/09 09:44:00;;;;;;;7.68;4.47;;;11.60;99.90;;;;;;5066996;28;20479;-73
2021/04/09 09:46:55;;;;;;;10.35;4.85;;;11.70;99.90;;;;;;5065382;28;20462;-72
2021/04/09 09:49:21;;;;;;;;;;;11.90;99.90;;;;;;5047361;28;20092;-72
2021/04/09 09:51:47;;;;;;;9.98;4.95;;;12.30;99.90;;;;;;5046693;28;19905;-72
2021/04/09 09:54:43;;;;;;;8.60;4.32;;;12.50;99.90;;;;;;5045313;28;20039;-73
2021/04/09 09:57:47;;;;;;;10.13;5.15;;;12.50;99.90;;;;;;5045799;28;20041;-72
2021/04/09 10:00:15;;;;;;;9.82;3.75;;;12.40;99.90;;;;;;5059432;28;20037;-74
2021/04/09 10:02:43;;;;;;;10.73;4.18;;;12.30;99.90;;;;;;5047944;28;20036;-73
2021/04/09 10:05:11;;;;;;;8.48;3.90;;;12.20;99.90;;;;;;5066693;28;20052;-73
2021/04/09 10:07:37;;;;;;;8.40;4.03;;;12.10;99.90;;;;;;5066463;28;20037;-72
2021/04/09 10:10:04;;;;;;;9.43;4.15;;;11.80;99.90;;;;;;5064996;28;20017;-72
2021/04/09 10:12:30;;;;;;;8.43;4.95;;;12.00;99.90;;;;;;5052587;28;20029;-73
2021/04/09 10:14:55;;;;;;;9.90;4.13;;;12.10;99.90;;;;;;5044669;28;20022;-74
2021/04/09 10:17:21;;;;;;;10.93;4.13;;;12.20;99.90;;;;;;5045507;28;20037;-73
2021/04/09 10:20:05;;;;;;;11.95;4.70;;;12.20;99.90;;;;;;5045517;28;20139;-72
2021/04/09 10:22:31;;;;;;;10.98;4.55;;;12.20;99.90;;;;;;5025775;28;20037;-75
2021/04/09 10:24:56;;;;;;;10.65;4.63;;;12.20;99.90;;;;;;5025548;28;20037;-72
2021/04/09 10:27:22;;;;;;;9.60;4.43;;;12.40;99.90;;;;;;5037907;28;20025;-73
2021/04/09 10:29:48;;;;;;;10.25;3.88;;;12.70;99.90;;;;;;5063853;28;20025;-72
2021/04/09 10:32:20;;;;;;;7.68;4.35;;;12.80;99.90;;;;;;5065647;28;20080;-75
2021/04/09 10:34:49;;;;;;;5.63;3.33;;;12.90;99.90;;;;;;5065218;28;20482;-74
2021/04/09 10:37:23;;;;;;;7.30;3.47;;;13.00;99.90;;;;;;5063582;28;20029;-74
2021/04/09 10:39:50;;;;;;;7.10;3.67;;;13.30;99.90;;;;;;5064307;28;20047;-73
2021/04/09 10:42:18;;;;;;;9.10;4.55;;;13.60;99.90;;;;;;5049640;28;20026;-74
2021/04/09 10:44:45;;;;;;;9.05;4.63;;;13.80;99.90;;;;;;5042960;28;20450;-72
2021/04/09 10:47:13;;;;;;;8.90;4.00;;;13.60;99.90;;;;;;5043648;28;20060;-73
2021/04/09 10:49:41;;;;;;;8.95;4.45;;;13.50;99.90;;;;;;5041717;28;20024;-74
2021/04/09 10:52:17;;;;;;;9.32;4.25;;;13.40;99.90;;;;;;5058914;28;20021;-72
2021/04/09 10:54:44;;;;;;;7.55;3.75;;;13.20;99.90;;;;;;5064363;28;20028;-77
2021/04/09 10:57:14;;;;;;;5.35;3.55;;;13.10;99.90;;;;;;5063603;28;20025;-74
2021/04/09 10:59:43;;;;;;;8.73;4.20;;;12.80;99.90;;;;;;5061863;28;20021;-73
2021/04/09 11:02:19;;;;;;;10.70;4.60;;;12.90;99.90;;;;;;5034917;28;20485;-72
2021/04/09 11:04:51;;;;;;;6.57;3.33;;;12.70;99.90;;;;;;5044020;28;20116;-73
2021/04/09 11:07:17;;;;;;;8.80;4.45;;;12.60;99.90;;;;;;5043592;28;20037;-73
2021/04/09 11:09:49;;;;;;;7.05;3.45;;;12.60;99.90;;;;;;5045375;28;20049;-74
2021/04/09 11:12:25;;;;;;;9.43;4.32;;;12.50;99.90;;;;;;5039978;28;20047;-76
2021/04/09 11:15:10;;;;;;;8.13;4.40;;;12.30;99.90;;;;;;5050880;28;20035;-76
2021/04/09 11:17:38;;;;;;;10.88;3.63;;;12.00;99.90;;;;;;5077589;28;20041;-72
2021/04/09 11:20:23;;;;;;;7.53;3.63;;;11.80;99.90;;;;;;5045253;28;20182;-73
2021/04/09 11:23:06;;;;;;;4.38;3.00;;;11.70;99.90;;;;;;5042649;28;20049;-74
2021/04/09 11:25:35;;;;;;;6.05;3.60;;;11.50;99.90;;;;;;5043263;28;20048;-75
2021/04/09 11:28:02;;;;;;;9.80;3.88;;;11.40;99.90;;;;;;5042170;28;20061;-75
2021/04/09 11:30:37;;;;;;;11.50;3.92;;;11.40;99.90;;;;;;5044858;28;20454;-75
2021/04/09 11:33:04;;;;;;;7.68;3.63;;;11.30;99.90;;;;;;5045115;28;20375;-74
2021/04/09 11:35:38;;;;;;;13.80;4.15;;;11.40;99.90;;;;;;5044963;28;20040;-75
2021/04/09 11:38:13;;;;;;;11.90;4.38;;;11.30;99.90;;;;;;5044980;28;20021;-75
2021/04/09 11:40:44;;;;;;;7.30;3.67;;;11.40;99.90;;;;;;5044799;28;20053;-74
2021/04/09 11:43:14;;;;;;;9.23;3.72;;;11.20;99.90;;;;;;5045331;28;20029;-77
2021/04/09 11:45:43;;;;;;;6.90;3.90;;;11.30;99.90;;;;;;5044700;28;20029;-76
2021/04/09 11:48:31;;;;;;;7.60;4.15;;;11.30;99.90;;;;;;5044730;28;20029;-74
2021/04/09 11:51:19;;;;;;;8.60;4.13;;;11.30;99.90;;;;;;5043944;28;20025;-73
2021/04/09 11:54:16;;;;;;;7.78;3.83;;;11.30;99.90;;;;;;5044524;28;20030;-75
2021/04/09 11:56:45;;;;;;;5.80;3.55;;;11.20;99.90;;;;;;5044186;28;20044;-76
2021/04/09 11:59:14;;;;;;;17.55;4.57;;;11.50;99.90;;;;;;5043034;28;20383;-75
2021/04/09 12:01:41;;;;;;;11.20;4.15;;;12.00;99.90;;;;;;5043719;28;20045;-74
2021/04/09 12:04:27;;;;;;;6.40;3.92;;;12.60;99.90;;;;;;5043195;28;20474;-72
2021/04/09 12:06:53;;;;;;;6.30;3.75;;;13.20;99.90;;;;;;5044140;28;20037;-72
2021/04/09 12:09:19;;;;;;;5.78;3.42;;;13.10;99.90;;;;;;5043005;28;20030;-73
2021/04/09 12:11:48;;;;;;;8.75;3.45;;;13.20;99.90;;;;;;5043519;28;20030;-73
2021/04/09 12:14:30;;;;;;;5.88;3.60;;;13.40;99.90;;;;;;5043062;28;20026;-73
2021/04/09 12:16:56;;;;;;;6.35;3.30;;;13.50;99.90;;;;;;5044416;28;20017;-72
2021/04/09 12:19:21;;;;;;;8.18;3.97;;;13.40;99.90;;;;;;5044317;28;20046;-73
2021/04/09 12:21:48;;;;;;;7.25;3.78;;;13.40;99.90;;;;;;5045250;28;20060;-74
2021/04/09 12:24:13;;;;;;;6.07;3.60;;;13.30;99.90;;;;;;5061369;28;20048;-75
2021/04/09 12:26:39;;;;;;;5.28;3.08;;;13.10;99.90;;;;;;5048021;28;20080;-73
2021/04/09 12:29:05;;;;;;;7.05;3.55;;;12.80;99.90;;;;;;5062735;28;20032;-73
2021/04/09 12:31:30;;;;;;;7.07;3.42;;;12.60;99.90;;;;;;5045847;28;20108;-74
2021/04/09 12:33:56;;;;;;;14.70;4.38;;;12.40;99.90;;;;;;5044203;28;20363;-74
2021/04/09 12:36:21;;;;;;;4.95;2.83;;;12.20;99.90;;;;;;5044201;28;20098;-74
2021/04/09 12:38:47;;;;;;;17.17;4.05;;;12.10;99.90;;;;;;5044196;28;20025;-74
2021/04/09 12:41:13;;;;;;;7.40;3.90;;;12.00;99.90;;;;;;5044214;28;20061;-74
2021/04/09 12:43:39;;;;;;;20.90;3.78;;;11.90;99.90;;;;;;5044343;28;20068;-72
2021/04/09 12:46:05;;;;;;;7.15;3.63;;;11.80;99.90;;;;;;5044139;28;20025;-73
2021/04/09 12:48:30;;;;;;;6.90;3.55;;;11.60;99.90;;;;;;5060080;28;20029;-76
2021/04/09 12:50:56;;;;;;;7.57;3.22;;;11.50;99.90;;;;;;5063841;28;20107;-71
2021/04/09 12:53:22;;;;;;;11.68;4.10;;;11.60;99.90;;;;;;5063707;28;20056;-73
2021/04/09 12:55:47;;;;;;;11.52;4.55;;;11.50;99.90;;;;;;5064046;28;20025;-72
2021/04/09 12:58:13;;;;;;;12.13;4.38;;;11.40;99.90;;;;;;5064388;28;20063;-74
2021/04/09 13:00:39;;;;;;;8.10;3.75;;;11.40;99.90;;;;;;5064191;28;20570;-73